sensor_id;sensor_type;location;lat;lon;timestamp;pressure;altitude;pressure_sealevel;temperature;humidity
70127;BME280;57491;42.694;23.314;2023-05-02T00:00:25;95440.66;;;14.06;56.07
70127;BME280;57491;42.694;23.314;2023-05-02T00:02:52;95435.56;;;13.91;56.03
70127;BME280;57491;42.694;23.314;2023-05-02T00:05:21;95444.00;;;13.93;56.30
70127;BME280;57491;42.694;23.314;2023-05-02T00:07:48;95448.22;;;13.94;56.13
70127;BME280;57491;42.694;23.314;2023-05-02T00:10:15;95440.28;;;13.81;57.05
70127;BME280;57491;42.694;23.314;2023-05-02T00:12:42;95443.72;;;13.81;56.88
70127;BME280;57491;42.694;23.314;2023-05-02T00:15:09;95424.09;;;13.64;57.61
70127;BME280;57491;42.694;23.314;2023-05-02T00:17:39;95434.16;;;13.67;56.99
70127;BME280;57491;42.694;23.314;2023-05-02T00:20:08;95437.75;;;13.66;57.22
70127;BME280;57491;42.694;23.314;2023-05-02T00:22:38;95437.75;;;13.66;57.72
70127;BME280;57491;42.694;23.314;2023-05-02T00:25:05;95436.53;;;13.62;57.13
70127;BME280;57491;42.694;23.314;2023-05-02T00:27:33;95446.59;;;13.65;57.56
70127;BME280;57491;42.694;23.314;2023-05-02T00:30:00;95450.56;;;13.61;57.24
70127;BME280;57491;42.694;23.314;2023-05-02T00:32:27;95444.91;;;13.58;57.53
70127;BME280;57491;42.694;23.314;2023-05-02T00:34:54;95452.75;;;13.58;57.68
70127;BME280;57491;42.694;23.314;2023-05-02T00:37:25;95453.47;;;13.45;58.55
70127;BME280;57491;42.694;23.314;2023-05-02T00:39:53;95462.91;;;13.46;57.84
70127;BME280;57491;42.694;23.314;2023-05-02T00:42:20;95459.03;;;13.42;58.78
70127;BME280;57491;42.694;23.314;2023-05-02T00:44:47;95470.50;;;13.41;58.56
70127;BME280;57491;42.694;23.314;2023-05-02T00:47:14;95473.16;;;13.26;59.08
70127;BME280;57491;42.694;23.314;2023-05-02T00:49:42;95479.25;;;13.33;59.22
70127;BME280;57491;42.694;23.314;2023-05-02T00:52:09;95480.50;;;13.37;59.13
70127;BME280;57491;42.694;23.314;2023-05-02T00:54:36;95463.81;;;13.17;59.89
70127;BME280;57491;42.694;23.314;2023-05-02T00:57:05;95478.28;;;13.20;60.02
70127;BME280;57491;42.694;23.314;2023-05-02T00:59:33;95473.06;;;13.20;59.43
70127;BME280;57491;42.694;23.314;2023-05-02T01:02:10;95476.44;;;13.14;59.81
70127;BME280;57491;42.694;23.314;2023-05-02T01:04:42;95466.81;;;13.14;60.80
70127;BME280;57491;42.694;23.314;2023-05-02T01:07:24;95465.88;;;13.22;60.29
70127;BME280;57491;42.694;23.314;2023-05-02T01:10:00;95470.47;;;13.20;60.02
70127;BME280;57491;42.694;23.314;2023-05-02T01:12:41;95478.28;;;13.20;60.61
70127;BME280;57491;42.694;23.314;2023-05-02T01:15:11;95470.03;;;13.16;60.07
70127;BME280;57491;42.694;23.314;2023-05-02T01:17:43;95474.31;;;13.24;59.89
70127;BME280;57491;42.694;23.314;2023-05-02T01:20:13;95465.88;;;13.07;60.78
70127;BME280;57491;42.694;23.314;2023-05-02T01:22:43;95461.22;;;13.17;59.92
70127;BME280;57491;42.694;23.314;2023-05-02T01:25:19;95456.72;;;13.11;60.12
70127;BME280;57491;42.694;23.314;2023-05-02T01:27:56;95452.94;;;13.14;60.04
70127;BME280;57491;42.694;23.314;2023-05-02T01:30:31;95443.38;;;13.21;60.13
70127;BME280;57491;42.694;23.314;2023-05-02T01:33:01;95450.78;;;13.17;59.77
70127;BME280;57491;42.694;23.314;2023-05-02T01:35:29;95457.91;;;13.30;60.28
70127;BME280;57491;42.694;23.314;2023-05-02T01:37:59;95462.97;;;13.31;60.39
70127;BME280;57491;42.694;23.314;2023-05-02T01:40:28;95460.91;;;13.27;60.74
70127;BME280;57491;42.694;23.314;2023-05-02T01:42:57;95462.53;;;13.28;60.17
70127;BME280;57491;42.694;23.314;2023-05-02T01:45:28;95468.09;;;13.25;60.46
70127;BME280;57491;42.694;23.314;2023-05-02T01:47:56;95463.47;;;13.06;61.38
70127;BME280;57491;42.694;23.314;2023-05-02T01:50:24;95471.31;;;13.06;60.64
70127;BME280;57491;42.694;23.314;2023-05-02T01:52:52;95461.47;;;13.08;61.04
70127;BME280;57491;42.694;23.314;2023-05-02T01:55:22;95473.53;;;13.09;61.89
70127;BME280;57491;42.694;23.314;2023-05-02T01:57:51;95473.56;;;12.94;61.99
70127;BME280;57491;42.694;23.314;2023-05-02T02:00:20;95461.84;;;12.69;62.80
70127;BME280;57491;42.694;23.314;2023-05-02T02:02:50;95466.03;;;12.84;62.03
70127;BME280;57491;42.694;23.314;2023-05-02T02:05:19;95461.06;;;12.89;62.01
70127;BME280;57491;42.694;23.314;2023-05-02T02:07:48;95458.09;;;12.92;61.57
70127;BME280;57491;42.694;23.314;2023-05-02T02:10:15;95452.25;;;12.90;61.64
70127;BME280;57491;42.694;23.314;2023-05-02T02:12:47;95457.03;;;12.87;62.10
70127;BME280;57491;42.694;23.314;2023-05-02T02:15:19;95464.94;;;12.93;62.79
70127;BME280;57491;42.694;23.314;2023-05-02T02:17:53;95468.78;;;12.97;61.72
70127;BME280;57491;42.694;23.314;2023-05-02T02:20:24;95466.41;;;12.81;62.87
70127;BME280;57491;42.694;23.314;2023-05-02T02:22:53;95462.09;;;12.74;62.54
70127;BME280;57491;42.694;23.314;2023-05-02T02:25:23;95462.81;;;12.82;63.02
70127;BME280;57491;42.694;23.314;2023-05-02T02:27:51;95468.84;;;12.83;62.45
70127;BME280;57491;42.694;23.314;2023-05-02T02:30:19;95471.56;;;12.60;63.49
70127;BME280;57491;42.694;23.314;2023-05-02T02:32:46;95472.81;;;12.64;63.33
70127;BME280;57491;42.694;23.314;2023-05-02T02:35:14;95465.00;;;12.64;63.36
70127;BME280;57491;42.694;23.314;2023-05-02T02:37:47;95469.94;;;12.74;63.16
70127;BME280;57491;42.694;23.314;2023-05-02T02:40:22;95469.94;;;12.59;63.17
70127;BME280;57491;42.694;23.314;2023-05-02T02:43:02;95463.81;;;12.52;63.07
70127;BME280;57491;42.694;23.314;2023-05-02T02:45:34;95467.59;;;12.49;63.37
70127;BME280;57491;42.694;23.314;2023-05-02T02:48:12;95470.06;;;12.51;63.97
70127;BME280;57491;42.694;23.314;2023-05-02T02:50:53;95467.97;;;12.46;64.00
70127;BME280;57491;42.694;23.314;2023-05-02T02:53:26;95456.19;;;12.36;63.35
70127;BME280;57491;42.694;23.314;2023-05-02T02:56:02;95473.47;;;12.37;64.08
70127;BME280;57491;42.694;23.314;2023-05-02T02:58:38;95476.69;;;12.24;64.08
70127;BME280;57491;42.694;23.314;2023-05-02T03:01:11;95478.91;;;12.13;64.93
70127;BME280;57491;42.694;23.314;2023-05-02T03:03:42;95482.50;;;12.12;65.44
70127;BME280;57491;42.694;23.314;2023-05-02T03:06:11;95486.47;;;12.07;65.21
70127;BME280;57491;42.694;23.314;2023-05-02T03:08:39;95489.00;;;12.16;64.91
70127;BME280;57491;42.694;23.314;2023-05-02T03:11:06;95496.84;;;12.16;64.98
70127;BME280;57491;42.694;23.314;2023-05-02T03:13:34;95499.25;;;12.17;65.00
70127;BME280;57491;42.694;23.314;2023-05-02T03:16:18;95497.34;;;12.26;64.80
70127;BME280;57491;42.694;23.314;2023-05-02T03:18:52;95510.66;;;12.16;65.08
70127;BME280;57491;42.694;23.314;2023-05-02T03:21:20;95500.22;;;12.01;65.67
70127;BME280;57491;42.694;23.314;2023-05-02T03:23:48;95500.06;;;12.18;65.28
70127;BME280;57491;42.694;23.314;2023-05-02T03:26:15;95502.38;;;12.13;64.82
70127;BME280;57491;42.694;23.314;2023-05-02T03:28:42;95494.81;;;12.03;64.76
70127;BME280;57491;42.694;23.314;2023-05-02T03:31:11;95513.00;;;12.11;64.63
70127;BME280;57491;42.694;23.314;2023-05-02T03:33:38;95515.94;;;12.08;65.01
70127;BME280;57491;42.694;23.314;2023-05-02T03:36:05;95511.38;;;12.10;65.25
70127;BME280;57491;42.694;23.314;2023-05-02T03:38:34;95517.56;;;12.09;65.50
70127;BME280;57491;42.694;23.314;2023-05-02T03:41:01;95515.50;;;12.04;65.54
70127;BME280;57491;42.694;23.314;2023-05-02T03:43:28;95508.56;;;11.97;65.71
70127;BME280;57491;42.694;23.314;2023-05-02T03:45:56;95516.03;;;12.00;65.54
70127;BME280;57491;42.694;23.314;2023-05-02T03:48:23;95515.13;;;12.07;65.38
70127;BME280;57491;42.694;23.314;2023-05-02T03:50:50;95512.19;;;12.11;65.32
70127;BME280;57491;42.694;23.314;2023-05-02T03:53:17;95518.66;;;12.15;64.89
70127;BME280;57491;42.694;23.314;2023-05-02T03:55:45;95519.66;;;12.14;64.99
70127;BME280;57491;42.694;23.314;2023-05-02T03:58:12;95517.94;;;12.21;65.34
70127;BME280;57491;42.694;23.314;2023-05-02T04:00:39;95517.16;;;12.20;64.78
70127;BME280;57491;42.694;23.314;2023-05-02T04:03:06;95510.41;;;12.26;64.34
70127;BME280;57491;42.694;23.314;2023-05-02T04:05:33;95516.72;;;12.46;63.70
70127;BME280;57491;42.694;23.314;2023-05-02T04:08:00;95507.09;;;12.46;63.05
70127;BME280;57491;42.694;23.314;2023-05-02T04:10:28;95523.09;;;12.58;63.35
70127;BME280;57491;42.694;23.314;2023-05-02T04:12:56;95515.66;;;12.70;62.60
70127;BME280;57491;42.694;23.314;2023-05-02T04:15:23;95519.66;;;12.87;62.00
70127;BME280;57491;42.694;23.314;2023-05-02T04:17:50;95519.03;;;12.85;62.18
70127;BME280;57491;42.694;23.314;2023-05-02T04:20:17;95500.75;;;12.85;61.51
70127;BME280;57491;42.694;23.314;2023-05-02T04:22:44;95510.81;;;13.03;61.27
70127;BME280;57491;42.694;23.314;2023-05-02T04:25:12;95505.41;;;13.04;61.08
70127;BME280;57491;42.694;23.314;2023-05-02T04:27:39;95507.66;;;13.07;60.55
70127;BME280;57491;42.694;23.314;2023-05-02T04:30:08;95520.28;;;13.18;60.74
70127;BME280;57491;42.694;23.314;2023-05-02T04:32:36;95514.91;;;13.41;59.33
70127;BME280;57491;42.694;23.314;2023-05-02T04:35:03;95522.19;;;13.46;58.66
70127;BME280;57491;42.694;23.314;2023-05-02T04:37:30;95523.56;;;13.63;58.90
70127;BME280;57491;42.694;23.314;2023-05-02T04:39:57;95536.19;;;13.80;58.26
70127;BME280;57491;42.694;23.314;2023-05-02T04:42:24;95526.47;;;13.96;57.76
70127;BME280;57491;42.694;23.314;2023-05-02T04:44:52;95529.19;;;14.09;56.64
70127;BME280;57491;42.694;23.314;2023-05-02T04:47:21;95531.56;;;14.04;56.81
70127;BME280;57491;42.694;23.314;2023-05-02T04:49:47;95529.06;;;14.17;56.38
70127;BME280;57491;42.694;23.314;2023-05-02T04:52:14;95528.53;;;14.00;56.86
70127;BME280;57491;42.694;23.314;2023-05-02T04:54:41;95531.56;;;14.04;56.46
70127;BME280;57491;42.694;23.314;2023-05-02T04:57:08;95530.44;;;14.13;56.20
70127;BME280;57491;42.694;23.314;2023-05-02T04:59:35;95532.16;;;14.06;56.20
70127;BME280;57491;42.694;23.314;2023-05-02T05:02:03;95537.03;;;14.09;56.16
70127;BME280;57491;42.694;23.314;2023-05-02T05:04:31;95537.63;;;14.11;55.59
70127;BME280;57491;42.694;23.314;2023-05-02T05:06:59;95539.03;;;13.85;56.24
70127;BME280;57491;42.694;23.314;2023-05-02T05:09:26;95534.44;;;13.66;57.13
70127;BME280;57491;42.694;23.314;2023-05-02T05:11:54;95530.28;;;13.51;57.79
70127;BME280;57491;42.694;23.314;2023-05-02T05:14:21;95530.19;;;13.65;57.53
70127;BME280;57491;42.694;23.314;2023-05-02T05:16:48;95539.91;;;13.93;55.88
70127;BME280;57491;42.694;23.314;2023-05-02T05:19:16;95534.88;;;13.91;55.44
70127;BME280;57491;42.694;23.314;2023-05-02T05:21:45;95533.19;;;14.05;55.21
70127;BME280;57491;42.694;23.314;2023-05-02T05:24:12;95526.56;;;14.09;55.44
70127;BME280;57491;42.694;23.314;2023-05-02T05:26:39;95536.81;;;14.32;53.90
70127;BME280;57491;42.694;23.314;2023-05-02T05:29:06;95535.53;;;14.49;53.18
70127;BME280;57491;42.694;23.314;2023-05-02T05:31:33;95544.59;;;14.81;52.05
70127;BME280;57491;42.694;23.314;2023-05-02T05:34:00;95540.28;;;15.07;51.53
70127;BME280;57491;42.694;23.314;2023-05-02T05:36:29;95544.31;;;15.03;51.20
70127;BME280;57491;42.694;23.314;2023-05-02T05:38:58;95538.75;;;15.26;50.43
70127;BME280;57491;42.694;23.314;2023-05-02T05:41:26;95554.91;;;15.36;50.46
70127;BME280;57491;42.694;23.314;2023-05-02T05:43:53;95545.84;;;15.39;49.77
70127;BME280;57491;42.694;23.314;2023-05-02T05:46:21;95539.56;;;15.33;49.70
70127;BME280;57491;42.694;23.314;2023-05-02T05:48:48;95550.47;;;15.30;50.02
70127;BME280;57491;42.694;23.314;2023-05-02T05:51:15;95546.72;;;15.59;49.47
70127;BME280;57491;42.694;23.314;2023-05-02T05:53:42;95565.66;;;15.54;49.36
70127;BME280;57491;42.694;23.314;2023-05-02T05:56:12;95549.75;;;15.62;49.03
70127;BME280;57491;42.694;23.314;2023-05-02T05:58:39;95553.19;;;15.56;49.58
70127;BME280;57491;42.694;23.314;2023-05-02T06:01:07;95579.22;;;15.65;49.04
70127;BME280;57491;42.694;23.314;2023-05-02T06:03:34;95558.59;;;15.48;49.58
70127;BME280;57491;42.694;23.314;2023-05-02T06:06:01;95548.19;;;15.75;48.85
70127;BME280;57491;42.694;23.314;2023-05-02T06:08:28;95553.66;;;15.99;47.90
70127;BME280;57491;42.694;23.314;2023-05-02T06:10:55;95558.31;;;16.04;48.14
70127;BME280;57491;42.694;23.314;2023-05-02T06:13:24;95555.28;;;16.27;47.39
70127;BME280;57491;42.694;23.314;2023-05-02T06:15:51;95580.13;;;16.11;47.45
70127;BME280;57491;42.694;23.314;2023-05-02T06:18:19;95546.75;;;15.72;48.62
70127;BME280;57491;42.694;23.314;2023-05-02T06:20:46;95550.59;;;15.76;48.47
70127;BME280;57491;42.694;23.314;2023-05-02T06:23:13;95551.34;;;15.50;48.89
70127;BME280;57491;42.694;23.314;2023-05-02T06:25:40;95540.13;;;15.83;48.43
70127;BME280;57491;42.694;23.314;2023-05-02T06:28:07;95544.19;;;15.92;47.30
70127;BME280;57491;42.694;23.314;2023-05-02T06:30:36;95542.75;;;15.96;47.83
70127;BME280;57491;42.694;23.314;2023-05-02T06:33:03;95547.03;;;16.23;47.21
70127;BME280;57491;42.694;23.314;2023-05-02T06:35:30;95561.28;;;15.81;47.92
70127;BME280;57491;42.694;23.314;2023-05-02T06:37:57;95547.78;;;15.78;48.01
70127;BME280;57491;42.694;23.314;2023-05-02T06:40:24;95540.91;;;15.70;48.06
70127;BME280;57491;42.694;23.314;2023-05-02T06:42:51;95534.25;;;15.68;47.63
70127;BME280;57491;42.694;23.314;2023-05-02T06:45:19;95537.34;;;15.97;47.81
70127;BME280;57491;42.694;23.314;2023-05-02T06:47:47;95534.06;;;16.55;46.48
70127;BME280;57491;42.694;23.314;2023-05-02T06:50:15;95542.97;;;16.73;44.68
70127;BME280;57491;42.694;23.314;2023-05-02T06:52:41;95534.84;;;16.81;44.84
70127;BME280;57491;42.694;23.314;2023-05-02T06:55:08;95543.41;;;17.21;44.38
70127;BME280;57491;42.694;23.314;2023-05-02T06:57:35;95543.16;;;17.36;43.67
70127;BME280;57491;42.694;23.314;2023-05-02T07:00:03;95538.56;;;17.69;43.63
70127;BME280;57491;42.694;23.314;2023-05-02T07:02:30;95547.31;;;17.95;41.50
70127;BME280;57491;42.694;23.314;2023-05-02T07:04:59;95542.25;;;17.62;42.77
70127;BME280;57491;42.694;23.314;2023-05-02T07:07:26;95540.56;;;17.74;41.66
70127;BME280;57491;42.694;23.314;2023-05-02T07:09:53;95531.09;;;17.66;42.34
70127;BME280;57491;42.694;23.314;2023-05-02T07:12:20;95533.69;;;17.73;42.25
70127;BME280;57491;42.694;23.314;2023-05-02T07:14:47;95529.91;;;17.94;40.56
70127;BME280;57491;42.694;23.314;2023-05-02T07:17:14;95543.19;;;18.30;39.13
70127;BME280;57491;42.694;23.314;2023-05-02T07:19:42;95531.59;;;18.13;40.14
70127;BME280;57491;42.694;23.314;2023-05-02T07:22:12;95550.81;;;18.13;40.43
70127;BME280;57491;42.694;23.314;2023-05-02T07:24:40;95546.28;;;17.58;41.27
70127;BME280;57491;42.694;23.314;2023-05-02T07:27:07;95560.88;;;17.54;40.90
70127;BME280;57491;42.694;23.314;2023-05-02T07:29:34;95546.59;;;17.36;41.06
70127;BME280;57491;42.694;23.314;2023-05-02T07:32:01;95539.97;;;17.27;41.34
70127;BME280;57491;42.694;23.314;2023-05-02T07:34:29;95540.09;;;17.46;41.29
70127;BME280;57491;42.694;23.314;2023-05-02T07:36:56;95536.50;;;17.78;40.96
70127;BME280;57491;42.694;23.314;2023-05-02T07:39:25;95538.25;;;18.15;39.09
70127;BME280;57491;42.694;23.314;2023-05-02T07:41:52;95552.50;;;18.01;39.82
70127;BME280;57491;42.694;23.314;2023-05-02T07:44:20;95536.84;;;18.38;39.65
70127;BME280;57491;42.694;23.314;2023-05-02T07:46:47;95557.56;;;18.59;38.23
70127;BME280;57491;42.694;23.314;2023-05-02T07:49:14;95551.50;;;18.02;39.12
70127;BME280;57491;42.694;23.314;2023-05-02T07:51:41;95544.34;;;18.41;38.94
70127;BME280;57491;42.694;23.314;2023-05-02T07:54:18;95548.66;;;19.14;37.24
70127;BME280;57491;42.694;23.314;2023-05-02T07:56:47;95551.09;;;19.34;36.66
70127;BME280;57491;42.694;23.314;2023-05-02T07:59:14;95561.47;;;19.95;35.74
70127;BME280;57491;42.694;23.314;2023-05-02T08:01:41;95552.31;;;20.10;34.75
70127;BME280;57491;42.694;23.314;2023-05-02T08:04:08;95546.59;;;19.71;35.81
70127;BME280;57491;42.694;23.314;2023-05-02T08:06:36;95530.22;;;19.33;36.31
70127;BME280;57491;42.694;23.314;2023-05-02T08:09:03;95545.97;;;19.39;36.10
70127;BME280;57491;42.694;23.314;2023-05-02T08:11:30;95551.66;;;19.36;36.37
70127;BME280;57491;42.694;23.314;2023-05-02T08:13:58;95550.47;;;19.69;35.81
70127;BME280;57491;42.694;23.314;2023-05-02T08:16:25;95538.09;;;20.22;34.52
70127;BME280;57491;42.694;23.314;2023-05-02T08:18:52;95535.38;;;20.99;32.95
70127;BME280;57491;42.694;23.314;2023-05-02T08:21:20;95535.00;;;21.42;32.39
70127;BME280;57491;42.694;23.314;2023-05-02T08:23:47;95539.41;;;21.64;31.46
70127;BME280;57491;42.694;23.314;2023-05-02T08:26:14;95534.81;;;21.88;30.79
70127;BME280;57491;42.694;23.314;2023-05-02T08:28:43;95530.88;;;22.36;30.34
70127;BME280;57491;42.694;23.314;2023-05-02T08:31:12;95534.09;;;22.54;29.89
70127;BME280;57491;42.694;23.314;2023-05-02T08:33:39;95534.56;;;22.85;29.70
70127;BME280;57491;42.694;23.314;2023-05-02T08:36:10;95529.91;;;23.35;28.71
70127;BME280;57491;42.694;23.314;2023-05-02T08:38:37;95534.66;;;23.77;27.96
70127;BME280;57491;42.694;23.314;2023-05-02T08:41:09;95535.25;;;24.37;27.41
70127;BME280;57491;42.694;23.314;2023-05-02T08:43:37;95550.16;;;23.41;28.03
70127;BME280;57491;42.694;23.314;2023-05-02T08:46:05;95535.97;;;23.31;28.82
70127;BME280;57491;42.694;23.314;2023-05-02T08:48:37;95525.69;;;23.83;27.92
70127;BME280;57491;42.694;23.314;2023-05-02T08:51:08;95525.06;;;24.61;26.41
70127;BME280;57491;42.694;23.314;2023-05-02T08:53:36;95527.03;;;24.76;26.25
70127;BME280;57491;42.694;23.314;2023-05-02T08:56:05;95532.25;;;24.61;26.42
70127;BME280;57491;42.694;23.314;2023-05-02T08:58:32;95525.00;;;24.51;26.39
70127;BME280;57491;42.694;23.314;2023-05-02T09:01:01;95520.53;;;24.57;26.87
70127;BME280;57491;42.694;23.314;2023-05-02T09:03:30;95519.56;;;24.73;26.41
70127;BME280;57491;42.694;23.314;2023-05-02T09:06:04;95522.94;;;24.58;26.58
70127;BME280;57491;42.694;23.314;2023-05-02T09:08:32;95524.09;;;24.35;26.76
70127;BME280;57491;42.694;23.314;2023-05-02T09:10:59;95511.16;;;24.86;26.50
70127;BME280;57491;42.694;23.314;2023-05-02T09:13:28;95502.59;;;25.31;25.14
70127;BME280;57491;42.694;23.314;2023-05-02T09:15:59;95511.97;;;25.49;24.76
70127;BME280;57491;42.694;23.314;2023-05-02T09:18:31;95499.44;;;25.44;24.74
70127;BME280;57491;42.694;23.314;2023-05-02T09:21:03;95497.78;;;25.23;25.24
70127;BME280;57491;42.694;23.314;2023-05-02T09:23:35;95504.72;;;24.82;25.51
70127;BME280;57491;42.694;23.314;2023-05-02T09:26:11;95512.38;;;24.10;26.20
70127;BME280;57491;42.694;23.314;2023-05-02T09:28:40;95510.91;;;23.43;26.85
70127;BME280;57491;42.694;23.314;2023-05-02T09:31:08;95514.59;;;23.42;26.75
70127;BME280;57491;42.694;23.314;2023-05-02T09:33:37;95514.16;;;22.52;28.43
70127;BME280;57491;42.694;23.314;2023-05-02T09:36:08;95507.44;;;22.44;28.61
70127;BME280;57491;42.694;23.314;2023-05-02T09:38:37;95509.53;;;23.19;27.79
70127;BME280;57491;42.694;23.314;2023-05-02T09:41:04;95507.72;;;23.41;27.57
70127;BME280;57491;42.694;23.314;2023-05-02T09:43:31;95504.00;;;24.18;26.07
70127;BME280;57491;42.694;23.314;2023-05-02T09:46:00;95507.84;;;23.78;26.17
70127;BME280;57491;42.694;23.314;2023-05-02T09:48:29;95499.75;;;23.90;25.97
70127;BME280;57491;42.694;23.314;2023-05-02T09:50:57;95484.50;;;24.07;25.76
70127;BME280;57491;42.694;23.314;2023-05-02T09:53:27;95495.34;;;24.06;26.21
70127;BME280;57491;42.694;23.314;2023-05-02T09:56:04;95481.69;;;23.92;26.43
70127;BME280;57491;42.694;23.314;2023-05-02T09:58:31;95490.75;;;24.23;25.85
70127;BME280;57491;42.694;23.314;2023-05-02T10:00:58;95481.69;;;24.56;25.60
70127;BME280;57491;42.694;23.314;2023-05-02T10:03:27;95475.97;;;25.26;24.44
70127;BME280;57491;42.694;23.314;2023-05-02T10:05:55;95477.88;;;25.30;23.83
70127;BME280;57491;42.694;23.314;2023-05-02T10:08:24;95475.31;;;24.94;24.60
70127;BME280;57491;42.694;23.314;2023-05-02T10:10:54;95466.16;;;25.42;23.35
70127;BME280;57491;42.694;23.314;2023-05-02T10:13:23;95467.78;;;25.43;23.28
70127;BME280;57491;42.694;23.314;2023-05-02T10:15:59;95463.78;;;24.41;24.64
70127;BME280;57491;42.694;23.314;2023-05-02T10:18:29;95456.88;;;24.08;25.31
70127;BME280;57491;42.694;23.314;2023-05-02T10:21:03;95458.34;;;24.68;24.56
70127;BME280;57491;42.694;23.314;2023-05-02T10:23:32;95467.78;;;25.48;23.26
70127;BME280;57491;42.694;23.314;2023-05-02T10:26:02;95456.81;;;25.29;23.29
70127;BME280;57491;42.694;23.314;2023-05-02T10:28:29;95453.38;;;25.33;23.60
70127;BME280;57491;42.694;23.314;2023-05-02T10:30:57;95450.84;;;25.94;23.03
70127;BME280;57491;42.694;23.314;2023-05-02T10:33:24;95451.25;;;25.41;23.68
70127;BME280;57491;42.694;23.314;2023-05-02T10:35:51;95452.44;;;25.70;22.96
70127;BME280;57491;42.694;23.314;2023-05-02T10:38:20;95445.75;;;25.57;22.74
70127;BME280;57491;42.694;23.314;2023-05-02T10:40:50;95445.25;;;25.91;22.40
70127;BME280;57491;42.694;23.314;2023-05-02T10:43:24;95440.47;;;26.18;22.55
70127;BME280;57491;42.694;23.314;2023-05-02T10:45:52;95445.25;;;25.86;22.83
70127;BME280;57491;42.694;23.314;2023-05-02T10:48:21;95430.31;;;25.69;22.75
70127;BME280;57491;42.694;23.314;2023-05-02T10:50:50;95432.22;;;26.25;22.00
70127;BME280;57491;42.694;23.314;2023-05-02T10:53:28;95442.34;;;26.33;22.06
70127;BME280;57491;42.694;23.314;2023-05-02T10:56:25;95431.72;;;27.17;21.39
70127;BME280;57491;42.694;23.314;2023-05-02T10:59:26;95430.75;;;26.98;21.14
70127;BME280;57491;42.694;23.314;2023-05-02T11:01:53;95423.91;;;27.36;21.18
70127;BME280;57491;42.694;23.314;2023-05-02T11:04:20;95424.78;;;27.70;20.57
70127;BME280;57491;42.694;23.314;2023-05-02T11:07:16;95421.09;;;28.34;20.11
70127;BME280;57491;42.694;23.314;2023-05-02T11:09:43;95423.19;;;28.66;19.43
70127;BME280;57491;42.694;23.314;2023-05-02T11:12:10;95405.09;;;28.29;19.74
70127;BME280;57491;42.694;23.314;2023-05-02T11:14:59;95429.69;;;28.31;19.89
70127;BME280;57491;42.694;23.314;2023-05-02T11:17:26;95422.75;;;27.52;20.50
70127;BME280;57491;42.694;23.314;2023-05-02T11:20:23;95423.16;;;26.15;22.14
70127;BME280;57491;42.694;23.314;2023-05-02T11:22:51;95413.00;;;25.57;23.32
70127;BME280;57491;42.694;23.314;2023-05-02T11:25:35;95415.66;;;25.77;23.27
70127;BME280;57491;42.694;23.314;2023-05-02T11:28:06;95403.69;;;26.10;22.46
70127;BME280;57491;42.694;23.314;2023-05-02T11:30:40;95401.00;;;26.50;22.00
70127;BME280;57491;42.694;23.314;2023-05-02T11:33:17;95402.22;;;26.83;22.33
70127;BME280;57491;42.694;23.314;2023-05-02T11:35:46;95401.16;;;26.84;21.58
70127;BME280;57491;42.694;23.314;2023-05-02T11:38:18;95406.63;;;26.13;22.08
70127;BME280;57491;42.694;23.314;2023-05-02T11:41:04;95406.91;;;26.22;22.32
70127;BME280;57491;42.694;23.314;2023-05-02T11:43:31;95397.03;;;26.28;22.40
70127;BME280;57491;42.694;23.314;2023-05-02T11:46:00;95398.25;;;26.71;21.42
70127;BME280;57491;42.694;23.314;2023-05-02T11:48:30;95395.09;;;27.33;21.04
70127;BME280;57491;42.694;23.314;2023-05-02T11:50:58;95383.50;;;27.91;20.96
70127;BME280;57491;42.694;23.314;2023-05-02T11:53:29;95394.16;;;27.58;20.82
70127;BME280;57491;42.694;23.314;2023-05-02T11:55:58;95400.19;;;26.50;22.33
70127;BME280;57491;42.694;23.314;2023-05-02T11:58:27;95381.97;;;26.87;21.89
70127;BME280;57491;42.694;23.314;2023-05-02T12:00:57;95387.63;;;27.30;21.33
70127;BME280;57491;42.694;23.314;2023-05-02T12:03:30;95381.97;;;26.77;21.73
70127;BME280;57491;42.694;23.314;2023-05-02T12:06:07;95379.16;;;27.18;21.33
70127;BME280;57491;42.694;23.314;2023-05-02T12:08:35;95369.72;;;26.66;21.81
70127;BME280;57491;42.694;23.314;2023-05-02T12:11:03;95363.34;;;26.67;21.96
70127;BME280;57491;42.694;23.314;2023-05-02T12:13:30;95370.94;;;25.74;23.24
70127;BME280;57491;42.694;23.314;2023-05-02T12:15:57;95362.41;;;25.87;23.37
70127;BME280;57491;42.694;23.314;2023-05-02T12:18:25;95364.00;;;25.73;23.07
70127;BME280;57491;42.694;23.314;2023-05-02T12:20:54;95346.34;;;25.11;23.80
70127;BME280;57491;42.694;23.314;2023-05-02T12:23:24;95359.66;;;25.11;23.66
70127;BME280;57491;42.694;23.314;2023-05-02T12:25:52;95343.63;;;24.96;23.61
70127;BME280;57491;42.694;23.314;2023-05-02T12:28:19;95355.63;;;24.47;24.25
70127;BME280;57491;42.694;23.314;2023-05-02T12:30:49;95353.78;;;24.05;24.85
70127;BME280;57491;42.694;23.314;2023-05-02T12:33:16;95335.59;;;24.24;24.59
70127;BME280;57491;42.694;23.314;2023-05-02T12:35:44;95329.88;;;24.00;24.61
70127;BME280;57491;42.694;23.314;2023-05-02T12:38:15;95335.34;;;24.25;24.77
70127;BME280;57491;42.694;23.314;2023-05-02T12:40:47;95322.38;;;23.97;24.44
70127;BME280;57491;42.694;23.314;2023-05-02T12:43:15;95318.13;;;23.91;24.61
70127;BME280;57491;42.694;23.314;2023-05-02T12:45:42;95313.84;;;23.90;24.38
70127;BME280;57491;42.694;23.314;2023-05-02T12:48:19;95310.47;;;24.05;24.51
70127;BME280;57491;42.694;23.314;2023-05-02T12:50:47;95315.50;;;24.01;24.09
70127;BME280;57491;42.694;23.314;2023-05-02T12:53:16;95312.84;;;23.59;24.34
70127;BME280;57491;42.694;23.314;2023-05-02T12:55:43;95302.97;;;23.23;24.74
70127;BME280;57491;42.694;23.314;2023-05-02T12:58:11;95321.00;;;23.26;24.35
70127;BME280;57491;42.694;23.314;2023-05-02T13:00:39;95307.75;;;22.99;24.66